sensor_id;sensor_type;location;lat;lon;timestamp;P1;durP1;ratioP1;P2;durP2;ratioP2
50900;SDS011;36879;51.416;6.678;2023-02-01T00:01:58;14.10;;;5.40;;
50900;SDS011;36879;51.416;6.678;2023-02-01T00:04:25;21.27;;;6.35;;
50900;SDS011;36879;51.416;6.678;2023-02-01T00:06:51;17.60;;;6.10;;
50900;SDS011;36879;51.416;6.678;2023-02-01T00:09:17;19.88;;;6.55;;
50900;SDS011;36879;51.416;6.678;2023-02-01T00:11:43;14.07;;;5.35;;
50900;SDS011;36879;51.416;6.678;2023-02-01T00:14:09;18.55;;;5.15;;
50900;SDS011;36879;51.416;6.678;2023-02-01T00:16:35;17.88;;;4.78;;
50900;SDS011;36879;51.416;6.678;2023-02-01T00:19:02;9.63;;;4.18;;
50900;SDS011;36879;51.416;6.678;2023-02-01T00:21:29;16.95;;;4.95;;
50900;SDS011;36879;51.416;6.678;2023-02-01T00:23:55;18.85;;;4.85;;
50900;SDS011;36879;51.416;6.678;2023-02-01T00:28:50;20.15;;;5.82;;
50900;SDS011;36879;51.416;6.678;2023-02-01T00:31:16;18.50;;;5.35;;
50900;SDS011;36879;51.416;6.678;2023-02-01T00:33:42;20.38;;;5.97;;
50900;SDS011;36879;51.416;6.678;2023-02-01T00:36:08;11.30;;;4.63;;
50900;SDS011;36879;51.416;6.678;2023-02-01T00:38:37;15.23;;;5.63;;
50900;SDS011;36879;51.416;6.678;2023-02-01T00:41:04;18.23;;;5.47;;
50900;SDS011;36879;51.416;6.678;2023-02-01T00:43:31;21.00;;;7.32;;
50900;SDS011;36879;51.416;6.678;2023-02-01T00:45:57;15.20;;;6.00;;
50900;SDS011;36879;51.416;6.678;2023-02-01T00:48:24;29.45;;;7.60;;
50900;SDS011;36879;51.416;6.678;2023-02-01T00:50:50;19.23;;;7.40;;
50900;SDS011;36879;51.416;6.678;2023-02-01T00:53:16;16.73;;;8.35;;
50900;SDS011;36879;51.416;6.678;2023-02-01T00:55:46;22.50;;;8.48;;
50900;SDS011;36879;51.416;6.678;2023-02-01T00:58:12;26.30;;;8.38;;
50900;SDS011;36879;51.416;6.678;2023-02-01T01:00:38;20.35;;;6.95;;
50900;SDS011;36879;51.416;6.678;2023-02-01T01:03:04;18.20;;;7.55;;
50900;SDS011;36879;51.416;6.678;2023-02-01T01:05:51;22.40;;;8.95;;
50900;SDS011;36879;51.416;6.678;2023-02-01T01:08:22;18.13;;;8.65;;
50900;SDS011;36879;51.416;6.678;2023-02-01T01:10:48;16.38;;;7.63;;
50900;SDS011;36879;51.416;6.678;2023-02-01T01:13:14;19.95;;;7.38;;
50900;SDS011;36879;51.416;6.678;2023-02-01T01:15:41;17.75;;;7.53;;
50900;SDS011;36879;51.416;6.678;2023-02-01T01:18:07;19.80;;;8.15;;
50900;SDS011;36879;51.416;6.678;2023-02-01T01:20:34;23.98;;;7.93;;
50900;SDS011;36879;51.416;6.678;2023-02-01T01:23:00;22.98;;;8.02;;
50900;SDS011;36879;51.416;6.678;2023-02-01T01:25:27;15.52;;;7.68;;
50900;SDS011;36879;51.416;6.678;2023-02-01T01:27:53;20.65;;;6.65;;
50900;SDS011;36879;51.416;6.678;2023-02-01T01:30:19;21.70;;;7.75;;
50900;SDS011;36879;51.416;6.678;2023-02-01T01:32:45;18.23;;;6.68;;
50900;SDS011;36879;51.416;6.678;2023-02-01T01:35:11;13.75;;;6.53;;
50900;SDS011;36879;51.416;6.678;2023-02-01T01:37:37;18.90;;;7.03;;
50900;SDS011;36879;51.416;6.678;2023-02-01T01:40:04;21.33;;;6.78;;
50900;SDS011;36879;51.416;6.678;2023-02-01T01:42:30;25.92;;;7.20;;
50900;SDS011;36879;51.416;6.678;2023-02-01T01:47:22;15.82;;;7.10;;
50900;SDS011;36879;51.416;6.678;2023-02-01T01:49:49;16.10;;;5.47;;
50900;SDS011;36879;51.416;6.678;2023-02-01T01:52:15;15.75;;;5.43;;
50900;SDS011;36879;51.416;6.678;2023-02-01T01:54:43;13.65;;;5.25;;
50900;SDS011;36879;51.416;6.678;2023-02-01T01:57:14;14.57;;;5.28;;
50900;SDS011;36879;51.416;6.678;2023-02-01T01:59:43;13.70;;;4.97;;
50900;SDS011;36879;51.416;6.678;2023-02-01T02:02:12;16.90;;;4.97;;
50900;SDS011;36879;51.416;6.678;2023-02-01T02:04:38;19.02;;;4.75;;
50900;SDS011;36879;51.416;6.678;2023-02-01T02:07:14;18.83;;;3.85;;
50900;SDS011;36879;51.416;6.678;2023-02-01T02:09:41;14.27;;;4.65;;
50900;SDS011;36879;51.416;6.678;2023-02-01T02:12:08;17.70;;;4.05;;
50900;SDS011;36879;51.416;6.678;2023-02-01T02:14:34;12.68;;;5.15;;
50900;SDS011;36879;51.416;6.678;2023-02-01T02:35:33;12.48;;;3.42;;
50900;SDS011;36879;51.416;6.678;2023-02-01T02:38:12;16.67;;;4.43;;
50900;SDS011;36879;51.416;6.678;2023-02-01T02:40:44;16.48;;;4.30;;
50900;SDS011;36879;51.416;6.678;2023-02-01T02:43:15;12.43;;;3.50;;
50900;SDS011;36879;51.416;6.678;2023-02-01T02:49:52;13.45;;;3.83;;
50900;SDS011;36879;51.416;6.678;2023-02-01T02:51:58;12.65;;;2.90;;
50900;SDS011;36879;51.416;6.678;2023-02-01T02:54:47;14.15;;;4.43;;
50900;SDS011;36879;51.416;6.678;2023-02-01T03:00:16;13.13;;;4.25;;
50900;SDS011;36879;51.416;6.678;2023-02-01T03:03:02;13.73;;;3.90;;
50900;SDS011;36879;51.416;6.678;2023-02-01T03:05:48;15.43;;;3.55;;
50900;SDS011;36879;51.416;6.678;2023-02-01T03:18:44;13.85;;;3.60;;
50900;SDS011;36879;51.416;6.678;2023-02-01T03:21:10;14.82;;;4.22;;
50900;SDS011;36879;51.416;6.678;2023-02-01T03:23:37;12.70;;;5.05;;
50900;SDS011;36879;51.416;6.678;2023-02-01T03:29:35;11.65;;;3.45;;
50900;SDS011;36879;51.416;6.678;2023-02-01T03:34:32;17.90;;;5.20;;
50900;SDS011;36879;51.416;6.678;2023-02-01T03:36:59;19.38;;;4.72;;
50900;SDS011;36879;51.416;6.678;2023-02-01T03:41:53;17.75;;;4.30;;
50900;SDS011;36879;51.416;6.678;2023-02-01T03:47:23;19.20;;;4.45;;
50900;SDS011;36879;51.416;6.678;2023-02-01T03:49:55;17.00;;;5.07;;
50900;SDS011;36879;51.416;6.678;2023-02-01T03:52:29;11.50;;;5.13;;
50900;SDS011;36879;51.416;6.678;2023-02-01T03:54:56;21.92;;;5.55;;
50900;SDS011;36879;51.416;6.678;2023-02-01T03:57:27;19.52;;;6.25;;
50900;SDS011;36879;51.416;6.678;2023-02-01T03:59:55;13.55;;;4.05;;
50900;SDS011;36879;51.416;6.678;2023-02-01T04:02:39;26.02;;;4.43;;
50900;SDS011;36879;51.416;6.678;2023-02-01T04:05:05;18.95;;;4.68;;
50900;SDS011;36879;51.416;6.678;2023-02-01T04:07:34;15.73;;;4.65;;
50900;SDS011;36879;51.416;6.678;2023-02-01T04:10:00;14.90;;;3.90;;
50900;SDS011;36879;51.416;6.678;2023-02-01T04:12:28;17.67;;;4.57;;
50900;SDS011;36879;51.416;6.678;2023-02-01T04:14:54;17.00;;;4.45;;
50900;SDS011;36879;51.416;6.678;2023-02-01T04:17:20;22.77;;;3.95;;
50900;SDS011;36879;51.416;6.678;2023-02-01T04:19:49;21.35;;;4.85;;
50900;SDS011;36879;51.416;6.678;2023-02-01T04:22:15;19.38;;;4.53;;
50900;SDS011;36879;51.416;6.678;2023-02-01T04:24:41;17.20;;;4.18;;
50900;SDS011;36879;51.416;6.678;2023-02-01T04:27:07;18.35;;;5.25;;
50900;SDS011;36879;51.416;6.678;2023-02-01T04:29:34;15.63;;;4.10;;
50900;SDS011;36879;51.416;6.678;2023-02-01T04:32:00;11.18;;;4.75;;
50900;SDS011;36879;51.416;6.678;2023-02-01T04:34:26;15.35;;;4.07;;
50900;SDS011;36879;51.416;6.678;2023-02-01T04:36:55;21.10;;;6.15;;
50900;SDS011;36879;51.416;6.678;2023-02-01T04:39:21;15.98;;;5.10;;
50900;SDS011;36879;51.416;6.678;2023-02-01T04:41:47;13.52;;;5.15;;
50900;SDS011;36879;51.416;6.678;2023-02-01T04:44:17;9.45;;;5.03;;
50900;SDS011;36879;51.416;6.678;2023-02-01T04:46:46;22.45;;;5.18;;
50900;SDS011;36879;51.416;6.678;2023-02-01T04:49:13;15.00;;;4.38;;
50900;SDS011;36879;51.416;6.678;2023-02-01T04:51:39;17.80;;;4.43;;
50900;SDS011;36879;51.416;6.678;2023-02-01T04:54:08;22.67;;;5.20;;
50900;SDS011;36879;51.416;6.678;2023-02-01T04:56:38;14.27;;;4.15;;
50900;SDS011;36879;51.416;6.678;2023-02-01T04:59:06;12.13;;;3.67;;
50900;SDS011;36879;51.416;6.678;2023-02-01T05:01:35;16.98;;;4.22;;
50900;SDS011;36879;51.416;6.678;2023-02-01T05:04:01;13.98;;;3.90;;
50900;SDS011;36879;51.416;6.678;2023-02-01T05:06:30;17.60;;;4.38;;
50900;SDS011;36879;51.416;6.678;2023-02-01T05:08:56;12.55;;;2.90;;
50900;SDS011;36879;51.416;6.678;2023-02-01T05:11:23;22.90;;;4.88;;
50900;SDS011;36879;51.416;6.678;2023-02-01T05:14:07;10.30;;;3.58;;
50900;SDS011;36879;51.416;6.678;2023-02-01T05:16:39;13.70;;;3.65;;
50900;SDS011;36879;51.416;6.678;2023-02-01T05:19:12;19.55;;;4.05;;
50900;SDS011;36879;51.416;6.678;2023-02-01T05:21:38;12.18;;;2.88;;
50900;SDS011;36879;51.416;6.678;2023-02-01T05:24:05;23.15;;;4.63;;
50900;SDS011;36879;51.416;6.678;2023-02-01T05:26:45;14.77;;;4.03;;
50900;SDS011;36879;51.416;6.678;2023-02-01T05:29:15;16.67;;;4.18;;
50900;SDS011;36879;51.416;6.678;2023-02-01T05:31:42;14.60;;;4.43;;
50900;SDS011;36879;51.416;6.678;2023-02-01T05:55:47;15.25;;;5.13;;
50900;SDS011;36879;51.416;6.678;2023-02-01T05:58:14;20.90;;;5.40;;
50900;SDS011;36879;51.416;6.678;2023-02-01T06:00:43;15.25;;;4.40;;
50900;SDS011;36879;51.416;6.678;2023-02-01T06:03:09;21.35;;;4.53;;
50900;SDS011;36879;51.416;6.678;2023-02-01T06:05:35;14.18;;;4.63;;
50900;SDS011;36879;51.416;6.678;2023-02-01T06:08:02;12.95;;;4.43;;
50900;SDS011;36879;51.416;6.678;2023-02-01T06:10:38;18.35;;;3.83;;
50900;SDS011;36879;51.416;6.678;2023-02-01T06:13:04;16.92;;;4.78;;
50900;SDS011;36879;51.416;6.678;2023-02-01T06:15:30;19.52;;;4.00;;
50900;SDS011;36879;51.416;6.678;2023-02-01T06:17:57;18.52;;;3.72;;
50900;SDS011;36879;51.416;6.678;2023-02-01T06:20:23;18.95;;;4.32;;
50900;SDS011;36879;51.416;6.678;2023-02-01T06:22:49;12.32;;;3.92;;
50900;SDS011;36879;51.416;6.678;2023-02-01T06:25:19;13.07;;;3.88;;
50900;SDS011;36879;51.416;6.678;2023-02-01T06:27:46;18.17;;;5.40;;
50900;SDS011;36879;51.416;6.678;2023-02-01T06:30:13;15.05;;;4.93;;
50900;SDS011;36879;51.416;6.678;2023-02-01T06:32:39;16.95;;;3.92;;
50900;SDS011;36879;51.416;6.678;2023-02-01T06:40:43;21.55;;;4.82;;
50900;SDS011;36879;51.416;6.678;2023-02-01T06:43:09;18.15;;;5.32;;
50900;SDS011;36879;51.416;6.678;2023-02-01T06:45:38;21.52;;;4.35;;
50900;SDS011;36879;51.416;6.678;2023-02-01T06:48:04;29.02;;;5.38;;
50900;SDS011;36879;51.416;6.678;2023-02-01T06:50:30;17.02;;;4.20;;
50900;SDS011;36879;51.416;6.678;2023-02-01T06:52:56;15.35;;;3.97;;
50900;SDS011;36879;51.416;6.678;2023-02-01T06:55:22;16.10;;;4.35;;
50900;SDS011;36879;51.416;6.678;2023-02-01T06:57:52;15.65;;;3.60;;
50900;SDS011;36879;51.416;6.678;2023-02-01T07:00:19;16.70;;;4.38;;
50900;SDS011;36879;51.416;6.678;2023-02-01T07:02:45;16.25;;;4.93;;
50900;SDS011;36879;51.416;6.678;2023-02-01T07:05:11;25.35;;;4.75;;
50900;SDS011;36879;51.416;6.678;2023-02-01T07:07:37;15.52;;;4.55;;
50900;SDS011;36879;51.416;6.678;2023-02-01T07:10:03;16.27;;;4.30;;
50900;SDS011;36879;51.416;6.678;2023-02-01T07:12:30;14.15;;;3.97;;
50900;SDS011;36879;51.416;6.678;2023-02-01T07:14:56;18.23;;;3.55;;
50900;SDS011;36879;51.416;6.678;2023-02-01T07:17:22;16.95;;;4.75;;
50900;SDS011;36879;51.416;6.678;2023-02-01T07:19:48;24.65;;;4.78;;
50900;SDS011;36879;51.416;6.678;2023-02-01T07:22:17;23.00;;;6.82;;
50900;SDS011;36879;51.416;6.678;2023-02-01T07:24:43;22.58;;;4.32;;
50900;SDS011;36879;51.416;6.678;2023-02-01T07:27:10;20.23;;;4.38;;
50900;SDS011;36879;51.416;6.678;2023-02-01T07:29:36;14.07;;;4.22;;
50900;SDS011;36879;51.416;6.678;2023-02-01T07:32:02;13.30;;;4.38;;
50900;SDS011;36879;51.416;6.678;2023-02-01T07:34:28;18.65;;;4.45;;
50900;SDS011;36879;51.416;6.678;2023-02-01T07:36:55;8.77;;;3.00;;
50900;SDS011;36879;51.416;6.678;2023-02-01T07:39:22;15.30;;;4.13;;
50900;SDS011;36879;51.416;6.678;2023-02-01T07:41:48;10.65;;;3.70;;
50900;SDS011;36879;51.416;6.678;2023-02-01T07:44:14;14.95;;;4.78;;
50900;SDS011;36879;51.416;6.678;2023-02-01T07:46:40;18.77;;;4.32;;
50900;SDS011;36879;51.416;6.678;2023-02-01T07:49:08;16.02;;;4.53;;
50900;SDS011;36879;51.416;6.678;2023-02-01T07:51:34;12.75;;;4.85;;
50900;SDS011;36879;51.416;6.678;2023-02-01T07:54:00;18.00;;;5.32;;
50900;SDS011;36879;51.416;6.678;2023-02-01T07:56:26;15.23;;;4.65;;
50900;SDS011;36879;51.416;6.678;2023-02-01T07:58:53;23.70;;;4.95;;
50900;SDS011;36879;51.416;6.678;2023-02-01T08:01:22;11.65;;;4.00;;
50900;SDS011;36879;51.416;6.678;2023-02-01T08:03:55;18.00;;;5.30;;
50900;SDS011;36879;51.416;6.678;2023-02-01T08:06:22;18.40;;;6.00;;
50900;SDS011;36879;51.416;6.678;2023-02-01T08:08:49;18.05;;;3.80;;
50900;SDS011;36879;51.416;6.678;2023-02-01T08:11:15;15.70;;;4.63;;
50900;SDS011;36879;51.416;6.678;2023-02-01T08:13:42;18.98;;;5.10;;
50900;SDS011;36879;51.416;6.678;2023-02-01T08:16:09;20.75;;;4.80;;
50900;SDS011;36879;51.416;6.678;2023-02-01T08:18:36;13.80;;;5.45;;
50900;SDS011;36879;51.416;6.678;2023-02-01T08:21:03;24.15;;;3.85;;
50900;SDS011;36879;51.416;6.678;2023-02-01T08:23:30;23.33;;;4.47;;
50900;SDS011;36879;51.416;6.678;2023-02-01T08:26:06;13.90;;;4.25;;
50900;SDS011;36879;51.416;6.678;2023-02-01T08:28:32;19.10;;;4.15;;
50900;SDS011;36879;51.416;6.678;2023-02-01T08:30:58;14.13;;;4.25;;
50900;SDS011;36879;51.416;6.678;2023-02-01T08:33:25;19.88;;;4.15;;
50900;SDS011;36879;51.416;6.678;2023-02-01T08:35:51;18.90;;;5.05;;
50900;SDS011;36879;51.416;6.678;2023-02-01T08:38:17;26.48;;;5.03;;
50900;SDS011;36879;51.416;6.678;2023-02-01T08:40:43;15.30;;;4.00;;
50900;SDS011;36879;51.416;6.678;2023-02-01T08:43:10;17.45;;;4.72;;
50900;SDS011;36879;51.416;6.678;2023-02-01T08:45:36;14.45;;;4.65;;
50900;SDS011;36879;51.416;6.678;2023-02-01T08:48:02;14.50;;;3.58;;
50900;SDS011;36879;51.416;6.678;2023-02-01T08:50:29;21.38;;;6.15;;
50900;SDS011;36879;51.416;6.678;2023-02-01T08:52:55;16.52;;;4.28;;
50900;SDS011;36879;51.416;6.678;2023-02-01T08:55:21;24.65;;;6.10;;
50900;SDS011;36879;51.416;6.678;2023-02-01T08:57:47;16.67;;;4.45;;
50900;SDS011;36879;51.416;6.678;2023-02-01T09:00:14;26.10;;;5.20;;
50900;SDS011;36879;51.416;6.678;2023-02-01T09:02:41;22.95;;;4.07;;
50900;SDS011;36879;51.416;6.678;2023-02-01T09:05:07;25.55;;;4.75;;
50900;SDS011;36879;51.416;6.678;2023-02-01T09:07:33;13.70;;;3.65;;
50900;SDS011;36879;51.416;6.678;2023-02-01T09:10:00;23.52;;;5.60;;
50900;SDS011;36879;51.416;6.678;2023-02-01T09:12:29;12.82;;;4.55;;
50900;SDS011;36879;51.416;6.678;2023-02-01T09:14:56;28.92;;;3.65;;
50900;SDS011;36879;51.416;6.678;2023-02-01T09:17:24;15.45;;;5.15;;
50900;SDS011;36879;51.416;6.678;2023-02-01T09:19:50;27.33;;;5.85;;
50900;SDS011;36879;51.416;6.678;2023-02-01T09:22:16;21.23;;;5.25;;
50900;SDS011;36879;51.416;6.678;2023-02-01T09:24:43;17.77;;;4.50;;
50900;SDS011;36879;51.416;6.678;2023-02-01T09:27:09;19.65;;;4.68;;
50900;SDS011;36879;51.416;6.678;2023-02-01T09:29:35;20.33;;;5.13;;
50900;SDS011;36879;51.416;6.678;2023-02-01T09:32:01;15.10;;;4.60;;
50900;SDS011;36879;51.416;6.678;2023-02-01T09:34:27;11.35;;;3.30;;
50900;SDS011;36879;51.416;6.678;2023-02-01T09:36:54;14.63;;;4.72;;
50900;SDS011;36879;51.416;6.678;2023-02-01T09:39:20;15.93;;;4.72;;
50900;SDS011;36879;51.416;6.678;2023-02-01T09:41:49;14.93;;;3.70;;
50900;SDS011;36879;51.416;6.678;2023-02-01T09:47:02;27.23;;;6.15;;
50900;SDS011;36879;51.416;6.678;2023-02-01T09:49:32;18.20;;;4.60;;
50900;SDS011;36879;51.416;6.678;2023-02-01T09:52:00;13.00;;;4.53;;
50900;SDS011;36879;51.416;6.678;2023-02-01T09:54:28;14.32;;;3.80;;
50900;SDS011;36879;51.416;6.678;2023-02-01T09:57:00;16.83;;;4.43;;
50900;SDS011;36879;51.416;6.678;2023-02-01T10:01:58;16.42;;;4.70;;
50900;SDS011;36879;51.416;6.678;2023-02-01T10:04:24;13.57;;;3.97;;
50900;SDS011;36879;51.416;6.678;2023-02-01T10:14:37;15.20;;;3.85;;
50900;SDS011;36879;51.416;6.678;2023-02-01T10:20:03;22.23;;;4.07;;
50900;SDS011;36879;51.416;6.678;2023-02-01T10:27:51;16.40;;;5.07;;
50900;SDS011;36879;51.416;6.678;2023-02-01T10:30:21;11.60;;;3.78;;
50900;SDS011;36879;51.416;6.678;2023-02-01T10:32:55;11.32;;;4.22;;
50900;SDS011;36879;51.416;6.678;2023-02-01T10:35:24;18.98;;;3.92;;
50900;SDS011;36879;51.416;6.678;2023-02-01T10:37:52;18.05;;;3.33;;
50900;SDS011;36879;51.416;6.678;2023-02-01T10:40:22;14.88;;;3.95;;
50900;SDS011;36879;51.416;6.678;2023-02-01T10:42:49;10.02;;;4.65;;
50900;SDS011;36879;51.416;6.678;2023-02-01T10:45:20;16.17;;;4.65;;
50900;SDS011;36879;51.416;6.678;2023-02-01T10:47:50;16.95;;;4.82;;
50900;SDS011;36879;51.416;6.678;2023-02-01T10:53:02;14.13;;;4.75;;
50900;SDS011;36879;51.416;6.678;2023-02-01T10:55:33;17.23;;;3.60;;
50900;SDS011;36879;51.416;6.678;2023-02-01T10:58:02;20.10;;;5.05;;
50900;SDS011;36879;51.416;6.678;2023-02-01T11:00:38;12.48;;;4.22;;
50900;SDS011;36879;51.416;6.678;2023-02-01T11:05:52;15.25;;;4.28;;
50900;SDS011;36879;51.416;6.678;2023-02-01T11:08:18;12.50;;;3.92;;
50900;SDS011;36879;51.416;6.678;2023-02-01T11:10:44;14.40;;;4.20;;
50900;SDS011;36879;51.416;6.678;2023-02-01T11:13:14;13.93;;;3.72;;
50900;SDS011;36879;51.416;6.678;2023-02-01T11:15:44;10.35;;;3.13;;
50900;SDS011;36879;51.416;6.678;2023-02-01T11:18:18;13.00;;;3.97;;
50900;SDS011;36879;51.416;6.678;2023-02-01T11:20:44;12.10;;;3.75;;
50900;SDS011;36879;51.416;6.678;2023-02-01T11:23:18;12.48;;;3.47;;
50900;SDS011;36879;51.416;6.678;2023-02-01T11:25:54;11.35;;;4.05;;
50900;SDS011;36879;51.416;6.678;2023-02-01T11:28:21;13.38;;;3.40;;
50900;SDS011;36879;51.416;6.678;2023-02-01T11:30:49;15.30;;;3.97;;
50900;SDS011;36879;51.416;6.678;2023-02-01T11:33:17;11.45;;;4.47;;
50900;SDS011;36879;51.416;6.678;2023-02-01T11:35:44;14.50;;;4.22;;
50900;SDS011;36879;51.416;6.678;2023-02-01T11:38:29;20.65;;;4.75;;
50900;SDS011;36879;51.416;6.678;2023-02-01T11:41:20;22.30;;;3.88;;
50900;SDS011;36879;51.416;6.678;2023-02-01T11:43:52;10.18;;;3.40;;
50900;SDS011;36879;51.416;6.678;2023-02-01T11:46:19;14.15;;;4.35;;
50900;SDS011;36879;51.416;6.678;2023-02-01T11:48:49;11.13;;;5.25;;
50900;SDS011;36879;51.416;6.678;2023-02-01T11:51:39;14.85;;;4.25;;
50900;SDS011;36879;51.416;6.678;2023-02-01T11:54:15;16.88;;;4.53;;
50900;SDS011;36879;51.416;6.678;2023-02-01T11:56:56;17.35;;;4.63;;
50900;SDS011;36879;51.416;6.678;2023-02-01T11:59:37;12.45;;;4.50;;
50900;SDS011;36879;51.416;6.678;2023-02-01T12:02:30;14.23;;;3.45;;
50900;SDS011;36879;51.416;6.678;2023-02-01T12:07:55;15.70;;;4.53;;
50900;SDS011;36879;51.416;6.678;2023-02-01T12:13:21;16.20;;;3.72;;
50900;SDS011;36879;51.416;6.678;2023-02-01T12:50:58;10.73;;;2.95;;
50900;SDS011;36879;51.416;6.678;2023-02-01T12:53:32;11.40;;;2.85;;
50900;SDS011;36879;51.416;6.678;2023-02-01T13:40:18;18.23;;;3.70;;
50900;SDS011;36879;51.416;6.678;2023-02-01T13:42:59;15.45;;;3.03;;
50900;SDS011;36879;51.416;6.678;2023-02-01T13:51:00;8.18;;;2.03;;
50900;SDS011;36879;51.416;6.678;2023-02-01T13:53:36;13.88;;;4.40;;
50900;SDS011;36879;51.416;6.678;2023-02-01T14:03:58;11.32;;;3.00;;
50900;SDS011;36879;51.416;6.678;2023-02-01T14:11:33;18.65;;;3.30;;
50900;SDS011;36879;51.416;6.678;2023-02-01T14:20:36;12.30;;;3.13;;
50900;SDS011;36879;51.416;6.678;2023-02-01T14:22:46;13.75;;;2.95;;
50900;SDS011;36879;51.416;6.678;2023-02-01T14:25:15;16.98;;;3.10;;
50900;SDS011;36879;51.416;6.678;2023-02-01T14:27:43;12.27;;;3.53;;
50900;SDS011;36879;51.416;6.678;2023-02-01T14:30:14;8.60;;;3.35;;
50900;SDS011;36879;51.416;6.678;2023-02-01T14:32:41;9.45;;;3.38;;
50900;SDS011;36879;51.416;6.678;2023-02-01T14:49:12;6.35;;;2.47;;
50900;SDS011;36879;51.416;6.678;2023-02-01T14:51:38;9.35;;;3.45;;
50900;SDS011;36879;51.416;6.678;2023-02-01T14:54:04;10.25;;;2.33;;
50900;SDS011;36879;51.416;6.678;2023-02-01T14:56:33;12.02;;;2.03;;
50900;SDS011;36879;51.416;6.678;2023-02-01T14:59:01;12.48;;;3.30;;
50900;SDS011;36879;51.416;6.678;2023-02-01T15:01:34;11.65;;;2.58;;
50900;SDS011;36879;51.416;6.678;2023-02-01T15:04:12;11.10;;;2.15;;
50900;SDS011;36879;51.416;6.678;2023-02-01T15:06:47;7.25;;;2.67;;
50900;SDS011;36879;51.416;6.678;2023-02-01T15:09:16;10.55;;;3.08;;
50900;SDS011;36879;51.416;6.678;2023-02-01T15:12:02;13.55;;;3.50;;
50900;SDS011;36879;51.416;6.678;2023-02-01T15:14:42;17.05;;;3.70;;
50900;SDS011;36879;51.416;6.678;2023-02-01T15:22:27;15.82;;;2.88;;
50900;SDS011;36879;51.416;6.678;2023-02-01T15:24:54;15.07;;;2.92;;
50900;SDS011;36879;51.416;6.678;2023-02-01T15:27:20;10.95;;;2.85;;
50900;SDS011;36879;51.416;6.678;2023-02-01T15:29:47;14.20;;;4.25;;
50900;SDS011;36879;51.416;6.678;2023-02-01T15:32:29;10.27;;;2.88;;
50900;SDS011;36879;51.416;6.678;2023-02-01T15:35:03;11.93;;;3.35;;
50900;SDS011;36879;51.416;6.678;2023-02-01T15:37:30;12.18;;;3.08;;
50900;SDS011;36879;51.416;6.678;2023-02-01T15:42:36;8.38;;;2.80;;
50900;SDS011;36879;51.416;6.678;2023-02-01T15:45:03;12.30;;;3.25;;
50900;SDS011;36879;51.416;6.678;2023-02-01T15:47:32;12.60;;;3.45;;
50900;SDS011;36879;51.416;6.678;2023-02-01T15:50:00;8.48;;;2.78;;
50900;SDS011;36879;51.416;6.678;2023-02-01T15:55:03;11.45;;;3.35;;
50900;SDS011;36879;51.416;6.678;2023-02-01T15:57:32;6.93;;;2.58;;
50900;SDS011;36879;51.416;6.678;2023-02-01T16:00:00;11.60;;;2.38;;
50900;SDS011;36879;51.416;6.678;2023-02-01T16:02:51;11.32;;;2.83;;
50900;SDS011;36879;51.416;6.678;2023-02-01T16:08:04;9.93;;;2.92;;
50900;SDS011;36879;51.416;6.678;2023-02-01T16:10:30;15.85;;;3.00;;
50900;SDS011;36879;51.416;6.678;2023-02-01T16:12:57;13.63;;;2.92;;
50900;SDS011;36879;51.416;6.678;2023-02-01T16:18:01;14.38;;;2.63;;
50900;SDS011;36879;51.416;6.678;2023-02-01T16:20:27;10.43;;;4.07;;
50900;SDS011;36879;51.416;6.678;2023-02-01T16:22:54;16.15;;;3.42;;
50900;SDS011;36879;51.416;6.678;2023-02-01T16:25:20;13.80;;;3.30;;
50900;SDS011;36879;51.416;6.678;2023-02-01T16:27:46;8.98;;;3.15;;
50900;SDS011;36879;51.416;6.678;2023-02-01T16:30:15;14.50;;;2.75;;
50900;SDS011;36879;51.416;6.678;2023-02-01T16:32:47;17.17;;;3.97;;
50900;SDS011;36879;51.416;6.678;2023-02-01T16:52:25;11.93;;;2.13;;
50900;SDS011;36879;51.416;6.678;2023-02-01T16:54:58;12.93;;;2.83;;
50900;SDS011;36879;51.416;6.678;2023-02-01T16:57:24;16.63;;;2.35;;
50900;SDS011;36879;51.416;6.678;2023-02-01T16:59:52;18.35;;;3.00;;
50900;SDS011;36879;51.416;6.678;2023-02-01T17:02:19;12.95;;;3.88;;
50900;SDS011;36879;51.416;6.678;2023-02-01T17:04:46;12.50;;;3.00;;
50900;SDS011;36879;51.416;6.678;2023-02-01T17:07:18;14.80;;;3.47;;
50900;SDS011;36879;51.416;6.678;2023-02-01T17:09:45;16.52;;;4.22;;
50900;SDS011;36879;51.416;6.678;2023-02-01T17:12:24;7.38;;;2.80;;
50900;SDS011;36879;51.416;6.678;2023-02-01T17:14:51;18.70;;;3.78;;
50900;SDS011;36879;51.416;6.678;2023-02-01T17:17:17;14.68;;;3.47;;
50900;SDS011;36879;51.416;6.678;2023-02-01T17:19:49;8.57;;;3.17;;
50900;SDS011;36879;51.416;6.678;2023-02-01T17:22:17;14.38;;;4.05;;
50900;SDS011;36879;51.416;6.678;2023-02-01T17:36:17;14.68;;;3.90;;
50900;SDS011;36879;51.416;6.678;2023-02-01T17:38:43;10.57;;;3.00;;
50900;SDS011;36879;51.416;6.678;2023-02-01T17:41:10;12.07;;;2.88;;
50900;SDS011;36879;51.416;6.678;2023-02-01T17:43:37;14.77;;;3.72;;
50900;SDS011;36879;51.416;6.678;2023-02-01T18:04:42;15.30;;;3.60;;
50900;SDS011;36879;51.416;6.678;2023-02-01T18:07:08;9.98;;;2.65;;
50900;SDS011;36879;51.416;6.678;2023-02-01T18:09:36;16.75;;;3.63;;
50900;SDS011;36879;51.416;6.678;2023-02-01T18:12:03;14.02;;;3.15;;
50900;SDS011;36879;51.416;6.678;2023-02-01T18:25:53;9.00;;;3.17;;
50900;SDS011;36879;51.416;6.678;2023-02-01T18:28:19;14.75;;;3.15;;
50900;SDS011;36879;51.416;6.678;2023-02-01T18:30:47;11.48;;;3.90;;
50900;SDS011;36879;51.416;6.678;2023-02-01T18:33:15;12.95;;;2.63;;
50900;SDS011;36879;51.416;6.678;2023-02-01T18:41:21;15.75;;;4.18;;
50900;SDS011;36879;51.416;6.678;2023-02-01T18:43:48;10.30;;;2.88;;
50900;SDS011;36879;51.416;6.678;2023-02-01T18:59:42;11.70;;;3.67;;
50900;SDS011;36879;51.416;6.678;2023-02-01T19:02:09;14.43;;;3.22;;
50900;SDS011;36879;51.416;6.678;2023-02-01T19:07:13;14.52;;;3.38;;
50900;SDS011;36879;51.416;6.678;2023-02-01T19:09:39;11.18;;;3.40;;
50900;SDS011;36879;51.416;6.678;2023-02-01T19:12:05;12.38;;;3.05;;
50900;SDS011;36879;51.416;6.678;2023-02-01T19:14:31;16.42;;;3.03;;
50900;SDS011;36879;51.416;6.678;2023-02-01T19:16:57;18.45;;;3.45;;
50900;SDS011;36879;51.416;6.678;2023-02-01T19:19:23;12.10;;;2.67;;
50900;SDS011;36879;51.416;6.678;2023-02-01T19:21:50;11.38;;;2.58;;
50900;SDS011;36879;51.416;6.678;2023-02-01T19:24:16;18.50;;;5.22;;
50900;SDS011;36879;51.416;6.678;2023-02-01T19:26:44;13.43;;;4.60;;
50900;SDS011;36879;51.416;6.678;2023-02-01T19:29:12;15.48;;;3.58;;
50900;SDS011;36879;51.416;6.678;2023-02-01T19:31:38;13.32;;;3.80;;
50900;SDS011;36879;51.416;6.678;2023-02-01T19:34:05;16.95;;;3.10;;
50900;SDS011;36879;51.416;6.678;2023-02-01T19:36:31;15.32;;;3.63;;
50900;SDS011;36879;51.416;6.678;2023-02-01T19:38:57;16.50;;;4.13;;
50900;SDS011;36879;51.416;6.678;2023-02-01T19:41:23;8.68;;;3.05;;
50900;SDS011;36879;51.416;6.678;2023-02-01T19:43:49;10.48;;;3.22;;
50900;SDS011;36879;51.416;6.678;2023-02-01T19:46:15;17.90;;;4.15;;
50900;SDS011;36879;51.416;6.678;2023-02-01T19:48:47;10.20;;;2.90;;
50900;SDS011;36879;51.416;6.678;2023-02-01T19:51:15;11.65;;;4.30;;
50900;SDS011;36879;51.416;6.678;2023-02-01T19:53:42;14.73;;;3.58;;
50900;SDS011;36879;51.416;6.678;2023-02-01T19:56:08;12.23;;;3.10;;
50900;SDS011;36879;51.416;6.678;2023-02-01T19:58:35;17.83;;;3.97;;
50900;SDS011;36879;51.416;6.678;2023-02-01T20:01:04;9.88;;;3.35;;
50900;SDS011;36879;51.416;6.678;2023-02-01T20:03:33;13.75;;;3.08;;
50900;SDS011;36879;51.416;6.678;2023-02-01T20:05:59;13.68;;;4.05;;
50900;SDS011;36879;51.416;6.678;2023-02-01T20:08:26;10.95;;;3.90;;
50900;SDS011;36879;51.416;6.678;2023-02-01T20:10:52;10.20;;;3.45;;